Kezdőlap
METAR-TAF:

METAR-TAF

Repülőterek :

Longyearbyen, Norvégia

földrajzi szélesség: 78-15N, földrajzi hosszúság: 015-28E, magasság: 2 m

Jelenlegi meteorológiai megfigyelések

A jelentés 1 órával és 4 perccel ezelõtt készült, 06:50 UTC
Délkeleti szél 17 kt
Hőmérséklet -2°C
Páratartalom 63%
Légköri nyomás 1012 hPa
Látótávolság 10 km, vagy több
Kevés felhő 2000 lábon
Szórványos felhőzet 7000 lábon

METAR: ENSB 240650Z 13017KT 9999 FEW020 SCT070 M02/M08 Q1012 NOSIG RMK WIND 1400FT 13019KT

Idő: 08:54 (07:54 UTC)

Előrejelzés

Az előrejelzés 24-én 06 óra UTC és 25-én 06 óra UTC között érvényes
Kelet-délkeleti szél 8 kt
Látótávolság 10 km, vagy több
Kevés felhő 2500 lábon
Szórványos felhőzet 5000 lábon
24-én 06 óra UTC és 24-én 18 óra UTC között ideiglenes
Délkeleti szél 15 kt széllökések: 25 kt

TAF: ENSB 2406/2506 12008KT 9999 FEW025 SCT050 TEMPO 2406/2418 13015G25KT

Meteorológiai megfigyelések és előrejelzések több, mint 4000 repülőtéren (METAR és TAF jelentéseket).

A térképen piros és sárga pontok jelzik az elérhető meteorológiai állomásokat.

Mozgassa az egeret a pont fölött, hogy megjelenjen az állomás neve.

Azután kattintson az időjárási megfigyelések és előrejelzések megtekintéséhez.

A térkép megváltoztatása: kattintson a fekete keresztel jelölt zöld gombra ráközelítéshez, a vonallal jelölt zöld gombra távolításhoz, vagy a zöld nyilakra a szomszédos térképek eléréséhez.


METAR-TAF: